sensor_id;sensor_type;location;lat;lon;timestamp;P1;durP1;ratioP1;P2;durP2;ratioP2
15958;SDS011;8078;47.822;9.402;2023-02-15T00:01:22;23.37;;;14.03;;
15958;SDS011;8078;47.822;9.402;2023-02-15T00:03:48;22.10;;;12.40;;
15958;SDS011;8078;47.822;9.402;2023-02-15T00:06:14;19.57;;;11.87;;
15958;SDS011;8078;47.822;9.402;2023-02-15T00:08:40;19.53;;;11.03;;
15958;SDS011;8078;47.822;9.402;2023-02-15T00:11:09;18.27;;;10.80;;
15958;SDS011;8078;47.822;9.402;2023-02-15T00:13:40;17.83;;;10.20;;
15958;SDS011;8078;47.822;9.402;2023-02-15T00:16:10;15.37;;;9.63;;
15958;SDS011;8078;47.822;9.402;2023-02-15T00:18:40;15.63;;;9.67;;
15958;SDS011;8078;47.822;9.402;2023-02-15T00:21:06;14.53;;;9.10;;
15958;SDS011;8078;47.822;9.402;2023-02-15T00:23:33;16.27;;;9.13;;
15958;SDS011;8078;47.822;9.402;2023-02-15T00:26:09;17.50;;;8.73;;
15958;SDS011;8078;47.822;9.402;2023-02-15T00:28:36;15.87;;;8.50;;
15958;SDS011;8078;47.822;9.402;2023-02-15T00:31:03;19.33;;;9.07;;
15958;SDS011;8078;47.822;9.402;2023-02-15T00:33:32;15.83;;;9.17;;
15958;SDS011;8078;47.822;9.402;2023-02-15T00:35:59;14.57;;;8.43;;
15958;SDS011;8078;47.822;9.402;2023-02-15T00:38:26;13.40;;;8.90;;
15958;SDS011;8078;47.822;9.402;2023-02-15T00:40:53;15.67;;;9.23;;
15958;SDS011;8078;47.822;9.402;2023-02-15T00:43:22;16.93;;;9.50;;
15958;SDS011;8078;47.822;9.402;2023-02-15T00:45:48;17.67;;;8.53;;
15958;SDS011;8078;47.822;9.402;2023-02-15T00:48:14;15.23;;;9.07;;
15958;SDS011;8078;47.822;9.402;2023-02-15T00:50:40;13.13;;;8.83;;
15958;SDS011;8078;47.822;9.402;2023-02-15T00:53:05;14.73;;;8.97;;
15958;SDS011;8078;47.822;9.402;2023-02-15T00:55:31;16.27;;;9.60;;
15958;SDS011;8078;47.822;9.402;2023-02-15T00:57:57;19.83;;;9.83;;
15958;SDS011;8078;47.822;9.402;2023-02-15T01:00:22;15.77;;;9.03;;
15958;SDS011;8078;47.822;9.402;2023-02-15T01:02:48;16.50;;;9.33;;
15958;SDS011;8078;47.822;9.402;2023-02-15T01:05:13;15.20;;;9.30;;
15958;SDS011;8078;47.822;9.402;2023-02-15T01:07:39;16.33;;;9.77;;
15958;SDS011;8078;47.822;9.402;2023-02-15T01:10:05;16.10;;;10.00;;
15958;SDS011;8078;47.822;9.402;2023-02-15T01:12:31;18.87;;;10.00;;
15958;SDS011;8078;47.822;9.402;2023-02-15T01:14:57;19.27;;;9.90;;
15958;SDS011;8078;47.822;9.402;2023-02-15T01:17:23;14.30;;;9.17;;
15958;SDS011;8078;47.822;9.402;2023-02-15T01:19:48;17.53;;;10.20;;
15958;SDS011;8078;47.822;9.402;2023-02-15T01:22:14;18.13;;;11.10;;
15958;SDS011;8078;47.822;9.402;2023-02-15T01:24:39;20.23;;;10.73;;
15958;SDS011;8078;47.822;9.402;2023-02-15T01:27:05;18.63;;;11.70;;
15958;SDS011;8078;47.822;9.402;2023-02-15T01:29:31;21.83;;;12.23;;
15958;SDS011;8078;47.822;9.402;2023-02-15T01:31:57;18.87;;;12.00;;
15958;SDS011;8078;47.822;9.402;2023-02-15T01:34:22;22.97;;;12.97;;
15958;SDS011;8078;47.822;9.402;2023-02-15T01:36:48;21.87;;;12.53;;
15958;SDS011;8078;47.822;9.402;2023-02-15T01:39:13;25.53;;;12.97;;
15958;SDS011;8078;47.822;9.402;2023-02-15T01:41:39;21.63;;;12.43;;
15958;SDS011;8078;47.822;9.402;2023-02-15T01:46:51;21.67;;;12.40;;
15958;SDS011;8078;47.822;9.402;2023-02-15T01:49:19;21.30;;;13.43;;
15958;SDS011;8078;47.822;9.402;2023-02-15T01:51:49;22.97;;;13.00;;
15958;SDS011;8078;47.822;9.402;2023-02-15T01:54:19;23.93;;;13.47;;
15958;SDS011;8078;47.822;9.402;2023-02-15T01:56:49;23.60;;;13.93;;
15958;SDS011;8078;47.822;9.402;2023-02-15T01:59:16;26.20;;;14.17;;
15958;SDS011;8078;47.822;9.402;2023-02-15T02:01:46;23.30;;;13.87;;
15958;SDS011;8078;47.822;9.402;2023-02-15T02:04:19;26.57;;;14.30;;
15958;SDS011;8078;47.822;9.402;2023-02-15T02:06:54;24.33;;;14.77;;
15958;SDS011;8078;47.822;9.402;2023-02-15T02:09:22;24.87;;;14.30;;
15958;SDS011;8078;47.822;9.402;2023-02-15T02:11:48;27.53;;;14.63;;
15958;SDS011;8078;47.822;9.402;2023-02-15T02:14:14;24.80;;;14.80;;
15958;SDS011;8078;47.822;9.402;2023-02-15T02:19:22;28.50;;;14.77;;
15958;SDS011;8078;47.822;9.402;2023-02-15T02:22:20;8.93;;;5.70;;
15958;SDS011;8078;47.822;9.402;2023-02-15T02:31:10;20.20;;;11.33;;
15958;SDS011;8078;47.822;9.402;2023-02-15T02:41:50;21.93;;;12.40;;
15958;SDS011;8078;47.822;9.402;2023-02-15T02:44:31;20.63;;;12.10;;
15958;SDS011;8078;47.822;9.402;2023-02-15T02:47:09;19.00;;;11.93;;
15958;SDS011;8078;47.822;9.402;2023-02-15T02:49:38;26.43;;;12.80;;
15958;SDS011;8078;47.822;9.402;2023-02-15T02:52:05;21.30;;;12.13;;
15958;SDS011;8078;47.822;9.402;2023-02-15T02:54:49;25.30;;;13.37;;
15958;SDS011;8078;47.822;9.402;2023-02-15T02:57:15;27.97;;;14.17;;
15958;SDS011;8078;47.822;9.402;2023-02-15T02:59:42;28.27;;;15.70;;
15958;SDS011;8078;47.822;9.402;2023-02-15T03:02:13;31.70;;;16.97;;
15958;SDS011;8078;47.822;9.402;2023-02-15T03:04:47;27.37;;;15.70;;
15958;SDS011;8078;47.822;9.402;2023-02-15T03:07:23;30.00;;;15.80;;
15958;SDS011;8078;47.822;9.402;2023-02-15T03:09:53;26.93;;;14.70;;
15958;SDS011;8078;47.822;9.402;2023-02-15T03:12:27;26.67;;;14.53;;
15958;SDS011;8078;47.822;9.402;2023-02-15T03:14:57;20.87;;;10.53;;
15958;SDS011;8078;47.822;9.402;2023-02-15T03:17:32;19.00;;;10.13;;
15958;SDS011;8078;47.822;9.402;2023-02-15T03:20:06;16.20;;;8.90;;
15958;SDS011;8078;47.822;9.402;2023-02-15T03:25:42;16.77;;;9.27;;
15958;SDS011;8078;47.822;9.402;2023-02-15T03:28:12;14.30;;;7.93;;
15958;SDS011;8078;47.822;9.402;2023-02-15T03:30:43;16.03;;;8.83;;
15958;SDS011;8078;47.822;9.402;2023-02-15T03:33:13;18.20;;;9.30;;
15958;SDS011;8078;47.822;9.402;2023-02-15T03:35:43;19.27;;;11.87;;
15958;SDS011;8078;47.822;9.402;2023-02-15T03:38:18;19.10;;;10.43;;
15958;SDS011;8078;47.822;9.402;2023-02-15T03:40:48;17.97;;;9.80;;
15958;SDS011;8078;47.822;9.402;2023-02-15T03:43:42;15.80;;;10.00;;
15958;SDS011;8078;47.822;9.402;2023-02-15T03:46:21;20.10;;;12.20;;
15958;SDS011;8078;47.822;9.402;2023-02-15T03:48:57;22.33;;;11.23;;
15958;SDS011;8078;47.822;9.402;2023-02-15T03:51:32;19.00;;;11.43;;
15958;SDS011;8078;47.822;9.402;2023-02-15T03:54:36;22.80;;;13.83;;
15958;SDS011;8078;47.822;9.402;2023-02-15T03:57:19;22.57;;;14.07;;
15958;SDS011;8078;47.822;9.402;2023-02-15T04:03:07;22.03;;;12.47;;
15958;SDS011;8078;47.822;9.402;2023-02-15T04:05:37;20.07;;;11.70;;
15958;SDS011;8078;47.822;9.402;2023-02-15T04:08:04;17.40;;;11.23;;
15958;SDS011;8078;47.822;9.402;2023-02-15T04:10:30;17.80;;;11.63;;
15958;SDS011;8078;47.822;9.402;2023-02-15T04:13:14;18.50;;;10.93;;
15958;SDS011;8078;47.822;9.402;2023-02-15T04:15:39;20.83;;;11.40;;
15958;SDS011;8078;47.822;9.402;2023-02-15T04:18:24;17.57;;;10.83;;
15958;SDS011;8078;47.822;9.402;2023-02-15T04:21:08;17.20;;;10.47;;
15958;SDS011;8078;47.822;9.402;2023-02-15T04:23:52;15.80;;;9.47;;
15958;SDS011;8078;47.822;9.402;2023-02-15T04:26:36;18.17;;;10.43;;
15958;SDS011;8078;47.822;9.402;2023-02-15T04:29:02;17.67;;;10.80;;
15958;SDS011;8078;47.822;9.402;2023-02-15T04:31:27;18.37;;;10.23;;
15958;SDS011;8078;47.822;9.402;2023-02-15T04:33:53;19.37;;;10.90;;
15958;SDS011;8078;47.822;9.402;2023-02-15T04:36:18;17.73;;;10.80;;
15958;SDS011;8078;47.822;9.402;2023-02-15T04:38:44;18.17;;;9.27;;
15958;SDS011;8078;47.822;9.402;2023-02-15T04:41:09;17.87;;;10.33;;
15958;SDS011;8078;47.822;9.402;2023-02-15T04:43:37;15.77;;;10.03;;
15958;SDS011;8078;47.822;9.402;2023-02-15T04:46:02;16.93;;;9.37;;
15958;SDS011;8078;47.822;9.402;2023-02-15T04:48:28;24.00;;;12.50;;
15958;SDS011;8078;47.822;9.402;2023-02-15T04:50:54;19.20;;;11.40;;
15958;SDS011;8078;47.822;9.402;2023-02-15T04:53:19;20.33;;;12.23;;
15958;SDS011;8078;47.822;9.402;2023-02-15T04:55:45;20.47;;;12.17;;
15958;SDS011;8078;47.822;9.402;2023-02-15T04:58:10;27.30;;;14.27;;
15958;SDS011;8078;47.822;9.402;2023-02-15T05:00:36;21.47;;;12.60;;
15958;SDS011;8078;47.822;9.402;2023-02-15T05:03:02;17.17;;;10.90;;
15958;SDS011;8078;47.822;9.402;2023-02-15T05:05:27;15.27;;;8.67;;
15958;SDS011;8078;47.822;9.402;2023-02-15T05:07:55;13.57;;;8.47;;
15958;SDS011;8078;47.822;9.402;2023-02-15T05:10:20;16.10;;;8.60;;
15958;SDS011;8078;47.822;9.402;2023-02-15T05:12:46;16.10;;;8.33;;
15958;SDS011;8078;47.822;9.402;2023-02-15T05:15:12;17.10;;;8.87;;
15958;SDS011;8078;47.822;9.402;2023-02-15T05:17:37;16.63;;;9.00;;
15958;SDS011;8078;47.822;9.402;2023-02-15T05:20:03;18.20;;;9.10;;
15958;SDS011;8078;47.822;9.402;2023-02-15T05:22:29;18.57;;;10.03;;
15958;SDS011;8078;47.822;9.402;2023-02-15T05:24:55;17.47;;;8.60;;
15958;SDS011;8078;47.822;9.402;2023-02-15T05:27:39;13.43;;;8.13;;
15958;SDS011;8078;47.822;9.402;2023-02-15T05:30:23;10.37;;;7.40;;
15958;SDS011;8078;47.822;9.402;2023-02-15T05:32:49;11.37;;;6.57;;
15958;SDS011;8078;47.822;9.402;2023-02-15T05:35:14;11.43;;;5.97;;
15958;SDS011;8078;47.822;9.402;2023-02-15T05:37:41;10.50;;;5.50;;
15958;SDS011;8078;47.822;9.402;2023-02-15T05:40:07;10.33;;;6.50;;
15958;SDS011;8078;47.822;9.402;2023-02-15T05:42:33;10.93;;;6.33;;
15958;SDS011;8078;47.822;9.402;2023-02-15T05:44:58;13.70;;;7.10;;
15958;SDS011;8078;47.822;9.402;2023-02-15T05:47:24;12.83;;;7.40;;
15958;SDS011;8078;47.822;9.402;2023-02-15T05:49:50;12.60;;;7.40;;
15958;SDS011;8078;47.822;9.402;2023-02-15T05:52:16;12.80;;;7.80;;
15958;SDS011;8078;47.822;9.402;2023-02-15T05:54:41;14.03;;;7.80;;
15958;SDS011;8078;47.822;9.402;2023-02-15T05:57:07;10.53;;;6.50;;
15958;SDS011;8078;47.822;9.402;2023-02-15T05:59:32;11.33;;;6.97;;
15958;SDS011;8078;47.822;9.402;2023-02-15T06:01:58;12.03;;;7.43;;
15958;SDS011;8078;47.822;9.402;2023-02-15T06:04:24;12.57;;;6.60;;
15958;SDS011;8078;47.822;9.402;2023-02-15T06:06:49;11.70;;;5.73;;
15958;SDS011;8078;47.822;9.402;2023-02-15T06:09:15;12.57;;;6.83;;
15958;SDS011;8078;47.822;9.402;2023-02-15T06:11:43;12.80;;;7.60;;
15958;SDS011;8078;47.822;9.402;2023-02-15T06:14:09;14.80;;;7.83;;
15958;SDS011;8078;47.822;9.402;2023-02-15T06:16:35;11.90;;;7.33;;
15958;SDS011;8078;47.822;9.402;2023-02-15T06:19:01;11.43;;;6.83;;
15958;SDS011;8078;47.822;9.402;2023-02-15T06:21:27;12.17;;;6.73;;
15958;SDS011;8078;47.822;9.402;2023-02-15T06:23:54;11.10;;;6.73;;
15958;SDS011;8078;47.822;9.402;2023-02-15T06:26:19;9.87;;;5.57;;
15958;SDS011;8078;47.822;9.402;2023-02-15T06:28:45;11.33;;;5.93;;
15958;SDS011;8078;47.822;9.402;2023-02-15T06:31:10;13.17;;;5.97;;
15958;SDS011;8078;47.822;9.402;2023-02-15T06:33:36;11.47;;;6.33;;
15958;SDS011;8078;47.822;9.402;2023-02-15T06:36:01;11.03;;;6.57;;
15958;SDS011;8078;47.822;9.402;2023-02-15T06:38:28;11.63;;;7.23;;
15958;SDS011;8078;47.822;9.402;2023-02-15T06:40:54;12.40;;;7.13;;
15958;SDS011;8078;47.822;9.402;2023-02-15T06:43:20;11.27;;;6.80;;
15958;SDS011;8078;47.822;9.402;2023-02-15T06:45:45;13.43;;;7.43;;
15958;SDS011;8078;47.822;9.402;2023-02-15T06:48:11;10.13;;;6.63;;
15958;SDS011;8078;47.822;9.402;2023-02-15T06:50:36;16.00;;;7.33;;
15958;SDS011;8078;47.822;9.402;2023-02-15T06:53:02;10.93;;;6.60;;
15958;SDS011;8078;47.822;9.402;2023-02-15T06:55:27;9.50;;;6.77;;
15958;SDS011;8078;47.822;9.402;2023-02-15T06:57:53;11.70;;;7.13;;
15958;SDS011;8078;47.822;9.402;2023-02-15T07:00:19;9.87;;;6.93;;
15958;SDS011;8078;47.822;9.402;2023-02-15T07:02:46;10.20;;;6.37;;
15958;SDS011;8078;47.822;9.402;2023-02-15T07:05:12;9.27;;;6.10;;
15958;SDS011;8078;47.822;9.402;2023-02-15T07:07:38;11.17;;;6.33;;
15958;SDS011;8078;47.822;9.402;2023-02-15T07:10:03;9.73;;;6.50;;
15958;SDS011;8078;47.822;9.402;2023-02-15T07:12:29;9.67;;;6.23;;
15958;SDS011;8078;47.822;9.402;2023-02-15T07:15:17;12.60;;;7.37;;
15958;SDS011;8078;47.822;9.402;2023-02-15T07:17:45;11.27;;;7.37;;
15958;SDS011;8078;47.822;9.402;2023-02-15T07:20:21;12.60;;;7.43;;
15958;SDS011;8078;47.822;9.402;2023-02-15T07:22:48;9.80;;;6.90;;
15958;SDS011;8078;47.822;9.402;2023-02-15T07:25:14;10.97;;;6.90;;
15958;SDS011;8078;47.822;9.402;2023-02-15T07:27:41;13.03;;;6.53;;
15958;SDS011;8078;47.822;9.402;2023-02-15T07:30:09;10.13;;;7.20;;
15958;SDS011;8078;47.822;9.402;2023-02-15T07:32:37;13.07;;;7.27;;
15958;SDS011;8078;47.822;9.402;2023-02-15T07:35:23;11.90;;;6.80;;
15958;SDS011;8078;47.822;9.402;2023-02-15T07:37:49;9.97;;;6.40;;
15958;SDS011;8078;47.822;9.402;2023-02-15T07:40:14;11.13;;;6.83;;
15958;SDS011;8078;47.822;9.402;2023-02-15T07:42:40;9.03;;;6.63;;
15958;SDS011;8078;47.822;9.402;2023-02-15T07:45:05;11.13;;;6.70;;
15958;SDS011;8078;47.822;9.402;2023-02-15T07:47:31;11.10;;;6.70;;
15958;SDS011;8078;47.822;9.402;2023-02-15T07:49:57;10.53;;;6.47;;
15958;SDS011;8078;47.822;9.402;2023-02-15T07:52:22;11.97;;;7.23;;
15958;SDS011;8078;47.822;9.402;2023-02-15T07:54:48;10.40;;;6.80;;
15958;SDS011;8078;47.822;9.402;2023-02-15T07:57:13;8.93;;;6.10;;
15958;SDS011;8078;47.822;9.402;2023-02-15T07:59:39;11.07;;;6.40;;
15958;SDS011;8078;47.822;9.402;2023-02-15T08:02:08;8.93;;;5.70;;
15958;SDS011;8078;47.822;9.402;2023-02-15T08:04:36;11.27;;;6.83;;
15958;SDS011;8078;47.822;9.402;2023-02-15T08:07:02;11.23;;;6.43;;
15958;SDS011;8078;47.822;9.402;2023-02-15T08:09:29;10.83;;;6.73;;
15958;SDS011;8078;47.822;9.402;2023-02-15T08:11:54;11.33;;;6.80;;
15958;SDS011;8078;47.822;9.402;2023-02-15T08:14:20;11.87;;;7.17;;
15958;SDS011;8078;47.822;9.402;2023-02-15T08:16:50;12.87;;;6.17;;
15958;SDS011;8078;47.822;9.402;2023-02-15T08:21:45;11.83;;;6.43;;
15958;SDS011;8078;47.822;9.402;2023-02-15T08:24:13;12.23;;;6.60;;
15958;SDS011;8078;47.822;9.402;2023-02-15T08:26:40;13.87;;;7.43;;
15958;SDS011;8078;47.822;9.402;2023-02-15T08:29:06;13.83;;;6.77;;
15958;SDS011;8078;47.822;9.402;2023-02-15T08:31:33;12.00;;;7.27;;
15958;SDS011;8078;47.822;9.402;2023-02-15T08:33:59;10.53;;;7.13;;
15958;SDS011;8078;47.822;9.402;2023-02-15T08:36:27;13.17;;;7.37;;
15958;SDS011;8078;47.822;9.402;2023-02-15T08:38:54;15.53;;;7.63;;
15958;SDS011;8078;47.822;9.402;2023-02-15T08:41:20;12.27;;;7.77;;
15958;SDS011;8078;47.822;9.402;2023-02-15T08:43:52;13.47;;;7.97;;
15958;SDS011;8078;47.822;9.402;2023-02-15T08:46:19;12.43;;;8.17;;
15958;SDS011;8078;47.822;9.402;2023-02-15T08:48:45;14.20;;;8.23;;
15958;SDS011;8078;47.822;9.402;2023-02-15T08:51:15;14.63;;;8.47;;
15958;SDS011;8078;47.822;9.402;2023-02-15T08:53:46;13.77;;;8.97;;
15958;SDS011;8078;47.822;9.402;2023-02-15T08:56:14;16.10;;;9.30;;
15958;SDS011;8078;47.822;9.402;2023-02-15T08:58:41;17.67;;;10.07;;
15958;SDS011;8078;47.822;9.402;2023-02-15T09:01:10;19.50;;;10.50;;
15958;SDS011;8078;47.822;9.402;2023-02-15T09:03:38;20.50;;;11.13;;
15958;SDS011;8078;47.822;9.402;2023-02-15T09:06:04;21.37;;;11.37;;
15958;SDS011;8078;47.822;9.402;2023-02-15T09:08:30;24.13;;;12.83;;
15958;SDS011;8078;47.822;9.402;2023-02-15T09:11:09;20.63;;;12.33;;
15958;SDS011;8078;47.822;9.402;2023-02-15T09:13:37;22.90;;;12.43;;
15958;SDS011;8078;47.822;9.402;2023-02-15T09:16:05;26.77;;;13.43;;
15958;SDS011;8078;47.822;9.402;2023-02-15T09:18:33;23.80;;;13.40;;
15958;SDS011;8078;47.822;9.402;2023-02-15T09:21:04;24.03;;;12.77;;
15958;SDS011;8078;47.822;9.402;2023-02-15T09:23:35;25.60;;;15.30;;
15958;SDS011;8078;47.822;9.402;2023-02-15T09:26:02;23.10;;;14.17;;
15958;SDS011;8078;47.822;9.402;2023-02-15T09:28:28;24.13;;;13.57;;
15958;SDS011;8078;47.822;9.402;2023-02-15T09:30:54;23.30;;;14.30;;
15958;SDS011;8078;47.822;9.402;2023-02-15T09:33:20;20.93;;;12.83;;
15958;SDS011;8078;47.822;9.402;2023-02-15T09:35:46;23.80;;;13.80;;
15958;SDS011;8078;47.822;9.402;2023-02-15T09:38:12;24.40;;;13.83;;
15958;SDS011;8078;47.822;9.402;2023-02-15T09:40:41;23.97;;;12.70;;
15958;SDS011;8078;47.822;9.402;2023-02-15T09:43:19;26.23;;;15.10;;
15958;SDS011;8078;47.822;9.402;2023-02-15T09:48:55;21.70;;;12.57;;
15958;SDS011;8078;47.822;9.402;2023-02-15T09:54:03;24.37;;;13.80;;
15958;SDS011;8078;47.822;9.402;2023-02-15T09:56:48;22.17;;;13.03;;
15958;SDS011;8078;47.822;9.402;2023-02-15T10:02:07;21.17;;;12.07;;
15958;SDS011;8078;47.822;9.402;2023-02-15T10:04:57;21.17;;;12.23;;
15958;SDS011;8078;47.822;9.402;2023-02-15T10:07:59;19.90;;;12.10;;
15958;SDS011;8078;47.822;9.402;2023-02-15T10:13:54;24.73;;;13.10;;
15958;SDS011;8078;47.822;9.402;2023-02-15T10:16:31;21.37;;;12.47;;
15958;SDS011;8078;47.822;9.402;2023-02-15T10:19:23;22.73;;;12.40;;
15958;SDS011;8078;47.822;9.402;2023-02-15T10:22:09;24.47;;;14.33;;
15958;SDS011;8078;47.822;9.402;2023-02-15T10:27:24;21.13;;;13.07;;
15958;SDS011;8078;47.822;9.402;2023-02-15T10:32:46;20.60;;;12.13;;
15958;SDS011;8078;47.822;9.402;2023-02-15T10:38:25;19.13;;;11.17;;
15958;SDS011;8078;47.822;9.402;2023-02-15T10:41:09;17.03;;;10.13;;
15958;SDS011;8078;47.822;9.402;2023-02-15T10:49:26;16.23;;;9.80;;
15958;SDS011;8078;47.822;9.402;2023-02-15T10:51:58;17.13;;;10.60;;
15958;SDS011;8078;47.822;9.402;2023-02-15T10:54:37;18.93;;;10.23;;
15958;SDS011;8078;47.822;9.402;2023-02-15T10:59:59;17.60;;;9.57;;
15958;SDS011;8078;47.822;9.402;2023-02-15T11:02:46;18.20;;;10.37;;
15958;SDS011;8078;47.822;9.402;2023-02-15T11:05:35;16.60;;;9.73;;
15958;SDS011;8078;47.822;9.402;2023-02-15T11:08:08;16.27;;;9.77;;
15958;SDS011;8078;47.822;9.402;2023-02-15T11:10:39;15.23;;;8.83;;
15958;SDS011;8078;47.822;9.402;2023-02-15T11:13:13;15.77;;;9.67;;
15958;SDS011;8078;47.822;9.402;2023-02-15T11:18:21;18.13;;;10.53;;
15958;SDS011;8078;47.822;9.402;2023-02-15T11:21:03;17.43;;;9.57;;
15958;SDS011;8078;47.822;9.402;2023-02-15T11:23:36;18.47;;;10.00;;
15958;SDS011;8078;47.822;9.402;2023-02-15T11:26:10;18.80;;;9.73;;
15958;SDS011;8078;47.822;9.402;2023-02-15T11:28:41;15.60;;;9.33;;
15958;SDS011;8078;47.822;9.402;2023-02-15T11:31:19;15.33;;;9.50;;
15958;SDS011;8078;47.822;9.402;2023-02-15T11:33:51;17.57;;;9.83;;
15958;SDS011;8078;47.822;9.402;2023-02-15T11:36:27;19.13;;;10.03;;
15958;SDS011;8078;47.822;9.402;2023-02-15T11:39:01;18.43;;;10.17;;
15958;SDS011;8078;47.822;9.402;2023-02-15T11:41:32;17.90;;;10.17;;
15958;SDS011;8078;47.822;9.402;2023-02-15T11:44:06;16.00;;;9.90;;
15958;SDS011;8078;47.822;9.402;2023-02-15T11:46:40;18.57;;;10.20;;
15958;SDS011;8078;47.822;9.402;2023-02-15T11:49:18;17.53;;;10.10;;
15958;SDS011;8078;47.822;9.402;2023-02-15T11:51:52;15.90;;;9.57;;
15958;SDS011;8078;47.822;9.402;2023-02-15T11:54:19;17.50;;;10.57;;
15958;SDS011;8078;47.822;9.402;2023-02-15T11:56:50;21.97;;;11.17;;
15958;SDS011;8078;47.822;9.402;2023-02-15T11:59:18;17.67;;;10.37;;
15958;SDS011;8078;47.822;9.402;2023-02-15T12:01:56;18.17;;;10.77;;
15958;SDS011;8078;47.822;9.402;2023-02-15T12:04:24;18.97;;;11.10;;
15958;SDS011;8078;47.822;9.402;2023-02-15T12:09:46;19.33;;;10.90;;
15958;SDS011;8078;47.822;9.402;2023-02-15T12:12:30;19.83;;;11.50;;
15958;SDS011;8078;47.822;9.402;2023-02-15T12:15:01;19.23;;;11.47;;
15958;SDS011;8078;47.822;9.402;2023-02-15T12:17:37;16.13;;;10.13;;
15958;SDS011;8078;47.822;9.402;2023-02-15T12:22:45;17.90;;;11.10;;
15958;SDS011;8078;47.822;9.402;2023-02-15T12:27:52;19.40;;;10.40;;
15958;SDS011;8078;47.822;9.402;2023-02-15T12:30:19;20.30;;;11.67;;
15958;SDS011;8078;47.822;9.402;2023-02-15T12:32:57;18.07;;;10.47;;
15958;SDS011;8078;47.822;9.402;2023-02-15T12:35:38;19.67;;;10.90;;
15958;SDS011;8078;47.822;9.402;2023-02-15T12:38:05;18.70;;;10.83;;
15958;SDS011;8078;47.822;9.402;2023-02-15T12:44:02;17.67;;;9.47;;
15958;SDS011;8078;47.822;9.402;2023-02-15T12:46:31;17.47;;;9.63;;
15958;SDS011;8078;47.822;9.402;2023-02-15T12:49:13;14.83;;;9.40;;
15958;SDS011;8078;47.822;9.402;2023-02-15T12:51:48;18.87;;;10.33;;
15958;SDS011;8078;47.822;9.402;2023-02-15T12:56:47;15.47;;;9.93;;
15958;SDS011;8078;47.822;9.402;2023-02-15T12:59:13;18.33;;;10.10;;
15958;SDS011;8078;47.822;9.402;2023-02-15T13:01:40;15.97;;;10.33;;
15958;SDS011;8078;47.822;9.402;2023-02-15T13:04:14;16.67;;;10.30;;
15958;SDS011;8078;47.822;9.402;2023-02-15T13:06:50;17.02;;;10.77;;
15958;SDS011;8078;47.822;9.402;2023-02-15T13:09:19;17.70;;;10.25;;
15958;SDS011;8078;47.822;9.402;2023-02-15T13:11:50;15.73;;;10.48;;
15958;SDS011;8078;47.822;9.402;2023-02-15T13:14:21;19.75;;;10.02;;
15958;SDS011;8078;47.822;9.402;2023-02-15T13:16:53;16.80;;;9.80;;
15958;SDS011;8078;47.822;9.402;2023-02-15T13:19:37;14.95;;;9.65;;
15958;SDS011;8078;47.822;9.402;2023-02-15T13:22:13;17.10;;;10.23;;
15958;SDS011;8078;47.822;9.402;2023-02-15T13:24:43;15.38;;;9.38;;
15958;SDS011;8078;47.822;9.402;2023-02-15T13:27:13;17.65;;;9.90;;
15958;SDS011;8078;47.822;9.402;2023-02-15T13:29:46;17.45;;;10.25;;
15958;SDS011;8078;47.822;9.402;2023-02-15T13:32:32;17.50;;;9.88;;
15958;SDS011;8078;47.822;9.402;2023-02-15T13:35:02;18.13;;;11.20;;
15958;SDS011;8078;47.822;9.402;2023-02-15T13:40:22;18.13;;;10.70;;
15958;SDS011;8078;47.822;9.402;2023-02-15T13:42:56;20.35;;;10.95;;
15958;SDS011;8078;47.822;9.402;2023-02-15T13:56:46;18.25;;;10.70;;
15958;SDS011;8078;47.822;9.402;2023-02-15T13:59:26;16.77;;;10.00;;
15958;SDS011;8078;47.822;9.402;2023-02-15T14:07:43;16.58;;;11.07;;
15958;SDS011;8078;47.822;9.402;2023-02-15T14:15:49;16.60;;;9.60;;
15958;SDS011;8078;47.822;9.402;2023-02-15T14:18:34;17.60;;;10.35;;
15958;SDS011;8078;47.822;9.402;2023-02-15T14:21:24;14.88;;;10.02;;
15958;SDS011;8078;47.822;9.402;2023-02-15T14:24:09;15.85;;;9.98;;
15958;SDS011;8078;47.822;9.402;2023-02-15T14:26:59;15.65;;;9.35;;
15958;SDS011;8078;47.822;9.402;2023-02-15T14:29:49;13.85;;;9.32;;
15958;SDS011;8078;47.822;9.402;2023-02-15T14:32:26;15.48;;;8.95;;
15958;SDS011;8078;47.822;9.402;2023-02-15T14:35:15;13.10;;;8.65;;
15958;SDS011;8078;47.822;9.402;2023-02-15T14:48:49;14.80;;;9.20;;
15958;SDS011;8078;47.822;9.402;2023-02-15T14:54:10;13.57;;;10.13;;
15958;SDS011;8078;47.822;9.402;2023-02-15T15:08:21;13.15;;;9.82;;
15958;SDS011;8078;47.822;9.402;2023-02-15T15:11:36;15.38;;;9.38;;
15958;SDS011;8078;47.822;9.402;2023-02-15T15:13:52;13.80;;;8.73;;
15958;SDS011;8078;47.822;9.402;2023-02-15T15:16:25;13.80;;;9.73;;
15958;SDS011;8078;47.822;9.402;2023-02-15T15:18:54;12.57;;;8.90;;
15958;SDS011;8078;47.822;9.402;2023-02-15T15:24:34;13.88;;;9.02;;
15958;SDS011;8078;47.822;9.402;2023-02-15T15:30:06;13.75;;;10.48;;
15958;SDS011;8078;47.822;9.402;2023-02-15T15:35:23;13.50;;;9.95;;
15958;SDS011;8078;47.822;9.402;2023-02-15T15:40:41;15.63;;;10.07;;
15958;SDS011;8078;47.822;9.402;2023-02-15T15:47:08;13.63;;;10.38;;
15958;SDS011;8078;47.822;9.402;2023-02-15T15:49:58;16.30;;;10.13;;
15958;SDS011;8078;47.822;9.402;2023-02-15T15:52:25;16.20;;;10.88;;
15958;SDS011;8078;47.822;9.402;2023-02-15T15:54:53;15.25;;;11.30;;
15958;SDS011;8078;47.822;9.402;2023-02-15T15:57:29;14.25;;;10.57;;
15958;SDS011;8078;47.822;9.402;2023-02-15T15:59:58;15.50;;;10.55;;
15958;SDS011;8078;47.822;9.402;2023-02-15T16:02:24;19.08;;;11.82;;
15958;SDS011;8078;47.822;9.402;2023-02-15T16:04:50;14.18;;;9.55;;
15958;SDS011;8078;47.822;9.402;2023-02-15T16:12:30;13.90;;;8.18;;
15958;SDS011;8078;47.822;9.402;2023-02-15T16:14:58;14.27;;;7.93;;
15958;SDS011;8078;47.822;9.402;2023-02-15T16:17:29;16.40;;;8.82;;
15958;SDS011;8078;47.822;9.402;2023-02-15T16:28:08;11.35;;;6.13;;
15958;SDS011;8078;47.822;9.402;2023-02-15T16:30:37;10.75;;;6.00;;
15958;SDS011;8078;47.822;9.402;2023-02-15T16:35:38;9.00;;;4.55;;
15958;SDS011;8078;47.822;9.402;2023-02-15T16:38:05;10.17;;;5.57;;
15958;SDS011;8078;47.822;9.402;2023-02-15T16:40:39;9.57;;;5.03;;
15958;SDS011;8078;47.822;9.402;2023-02-15T16:43:14;8.03;;;4.60;;
15958;SDS011;8078;47.822;9.402;2023-02-15T16:45:44;7.40;;;4.50;;
15958;SDS011;8078;47.822;9.402;2023-02-15T16:48:12;7.47;;;4.40;;
15958;SDS011;8078;47.822;9.402;2023-02-15T16:50:46;10.80;;;5.37;;
15958;SDS011;8078;47.822;9.402;2023-02-15T16:53:16;7.37;;;4.63;;
15958;SDS011;8078;47.822;9.402;2023-02-15T16:55:48;9.80;;;5.30;;
15958;SDS011;8078;47.822;9.402;2023-02-15T16:58:16;10.27;;;4.57;;
15958;SDS011;8078;47.822;9.402;2023-02-15T17:00:45;9.27;;;4.83;;
15958;SDS011;8078;47.822;9.402;2023-02-15T17:05:44;13.63;;;5.47;;
15958;SDS011;8078;47.822;9.402;2023-02-15T17:08:17;9.93;;;4.57;;
15958;SDS011;8078;47.822;9.402;2023-02-15T17:16:29;7.80;;;4.33;;
15958;SDS011;8078;47.822;9.402;2023-02-15T17:18:56;6.87;;;4.20;;
15958;SDS011;8078;47.822;9.402;2023-02-15T17:21:24;6.83;;;3.73;;
15958;SDS011;8078;47.822;9.402;2023-02-15T17:23:59;7.53;;;3.90;;
15958;SDS011;8078;47.822;9.402;2023-02-15T17:26:30;11.07;;;4.33;;
15958;SDS011;8078;47.822;9.402;2023-02-15T17:29:23;6.70;;;4.40;;
15958;SDS011;8078;47.822;9.402;2023-02-15T17:31:47;7.30;;;4.37;;
15958;SDS011;8078;47.822;9.402;2023-02-15T17:34:40;8.17;;;4.03;;
15958;SDS011;8078;47.822;9.402;2023-02-15T17:37:11;8.17;;;4.30;;
15958;SDS011;8078;47.822;9.402;2023-02-15T17:39:38;8.23;;;4.40;;
15958;SDS011;8078;47.822;9.402;2023-02-15T17:42:05;6.47;;;4.07;;
15958;SDS011;8078;47.822;9.402;2023-02-15T17:44:30;6.27;;;3.60;;
15958;SDS011;8078;47.822;9.402;2023-02-15T17:46:56;5.50;;;3.63;;
15958;SDS011;8078;47.822;9.402;2023-02-15T17:49:24;6.10;;;4.30;;